sensor_id;sensor_type;location;lat;lon;timestamp;noise_LAeq;noise_LA_min;noise_LA_max;noise_LA01;noise_LA95
66452;Laerm;56831;52.380;4.744;2023-02-13T00:00:10;31.56;29.72;33.02;;
66452;Laerm;56831;52.380;4.744;2023-02-13T00:00:22;31.95;30.16;36.33;;
66452;Laerm;56831;52.380;4.744;2023-02-13T00:00:33;31.13;30.02;32.92;;
66452;Laerm;56831;52.380;4.744;2023-02-13T00:00:44;31.17;29.86;32.50;;
66452;Laerm;56831;52.380;4.744;2023-02-13T00:00:55;31.29;29.55;33.28;;
66452;Laerm;56831;52.380;4.744;2023-02-13T00:01:08;30.95;29.72;32.34;;
66452;Laerm;56831;52.380;4.744;2023-02-13T00:01:19;30.70;29.20;32.24;;
66452;Laerm;56831;52.380;4.744;2023-02-13T00:01:30;30.64;29.59;31.84;;
66452;Laerm;56831;52.380;4.744;2023-02-13T00:01:41;30.91;29.82;32.28;;
66452;Laerm;56831;52.380;4.744;2023-02-13T00:01:52;30.79;29.55;32.19;;
66452;Laerm;56831;52.380;4.744;2023-02-13T00:02:03;30.96;29.56;32.40;;
66452;Laerm;56831;52.380;4.744;2023-02-13T00:02:14;31.21;29.94;32.25;;
66452;Laerm;56831;52.380;4.744;2023-02-13T00:02:27;31.08;29.64;34.56;;
66452;Laerm;56831;52.380;4.744;2023-02-13T00:02:38;31.41;30.02;32.97;;
66452;Laerm;56831;52.380;4.744;2023-02-13T00:02:48;31.34;29.78;33.33;;
66452;Laerm;56831;52.380;4.744;2023-02-13T00:03:02;31.54;29.92;32.99;;
66452;Laerm;56831;52.380;4.744;2023-02-13T00:03:13;31.82;30.38;33.91;;
66452;Laerm;56831;52.380;4.744;2023-02-13T00:03:24;31.79;30.52;33.34;;
66452;Laerm;56831;52.380;4.744;2023-02-13T00:03:36;31.45;29.95;32.96;;
66452;Laerm;56831;52.380;4.744;2023-02-13T00:03:47;31.76;30.38;33.68;;
66452;Laerm;56831;52.380;4.744;2023-02-13T00:03:58;34.54;30.74;39.23;;
66452;Laerm;56831;52.380;4.744;2023-02-13T00:04:10;33.15;31.19;35.88;;
66452;Laerm;56831;52.380;4.744;2023-02-13T00:04:31;33.25;30.58;35.18;;
66452;Laerm;56831;52.380;4.744;2023-02-13T00:04:41;32.96;31.23;35.06;;
66452;Laerm;56831;52.380;4.744;2023-02-13T00:04:52;32.73;31.18;34.33;;
66452;Laerm;56831;52.380;4.744;2023-02-13T00:05:03;32.40;30.69;34.05;;
66452;Laerm;56831;52.380;4.744;2023-02-13T00:05:13;33.40;31.68;35.78;;
66452;Laerm;56831;52.380;4.744;2023-02-13T00:05:24;32.93;31.45;34.71;;
66452;Laerm;56831;52.380;4.744;2023-02-13T00:05:34;32.54;30.39;34.79;;
66452;Laerm;56831;52.380;4.744;2023-02-13T00:05:45;32.22;30.56;34.21;;
66452;Laerm;56831;52.380;4.744;2023-02-13T00:05:57;32.73;30.80;34.92;;
66452;Laerm;56831;52.380;4.744;2023-02-13T00:06:07;33.61;30.57;36.09;;
66452;Laerm;56831;52.380;4.744;2023-02-13T00:06:19;32.26;30.79;33.51;;
66452;Laerm;56831;52.380;4.744;2023-02-13T00:06:32;33.04;31.04;34.97;;
66452;Laerm;56831;52.380;4.744;2023-02-13T00:06:43;33.78;32.01;35.36;;
66452;Laerm;56831;52.380;4.744;2023-02-13T00:06:55;33.33;30.85;37.05;;
66452;Laerm;56831;52.380;4.744;2023-02-13T00:07:05;32.91;30.76;36.24;;
66452;Laerm;56831;52.380;4.744;2023-02-13T00:07:18;32.93;31.17;34.57;;
66452;Laerm;56831;52.380;4.744;2023-02-13T00:07:28;32.06;30.12;34.15;;
66452;Laerm;56831;52.380;4.744;2023-02-13T00:07:39;31.73;29.98;34.78;;
66452;Laerm;56831;52.380;4.744;2023-02-13T00:07:50;31.51;30.20;33.00;;
66452;Laerm;56831;52.380;4.744;2023-02-13T00:08:02;32.73;30.30;35.88;;
66452;Laerm;56831;52.380;4.744;2023-02-13T00:08:12;31.57;29.92;33.05;;
66452;Laerm;56831;52.380;4.744;2023-02-13T00:08:24;31.56;29.94;33.31;;
66452;Laerm;56831;52.380;4.744;2023-02-13T00:08:36;31.48;30.08;33.15;;
66452;Laerm;56831;52.380;4.744;2023-02-13T00:08:50;32.03;30.04;33.47;;
66452;Laerm;56831;52.380;4.744;2023-02-13T00:09:03;32.27;30.84;33.72;;
66452;Laerm;56831;52.380;4.744;2023-02-13T00:09:14;32.27;30.65;35.07;;
66452;Laerm;56831;52.380;4.744;2023-02-13T00:09:24;32.55;30.70;34.47;;
66452;Laerm;56831;52.380;4.744;2023-02-13T00:09:36;32.74;30.86;35.55;;
66452;Laerm;56831;52.380;4.744;2023-02-13T00:09:49;32.45;30.43;34.79;;
66452;Laerm;56831;52.380;4.744;2023-02-13T00:10:18;32.14;30.30;35.28;;
66452;Laerm;56831;52.380;4.744;2023-02-13T00:10:35;31.94;30.24;33.26;;
66452;Laerm;56831;52.380;4.744;2023-02-13T00:10:46;31.32;29.68;32.88;;
66452;Laerm;56831;52.380;4.744;2023-02-13T00:11:00;31.33;29.80;33.77;;
66452;Laerm;56831;52.380;4.744;2023-02-13T00:11:12;32.05;30.16;33.91;;
66452;Laerm;56831;52.380;4.744;2023-02-13T00:11:22;31.59;30.35;34.31;;
66452;Laerm;56831;52.380;4.744;2023-02-13T00:11:40;31.47;30.14;33.01;;
66452;Laerm;56831;52.380;4.744;2023-02-13T00:11:51;31.66;30.01;33.71;;
66452;Laerm;56831;52.380;4.744;2023-02-13T00:12:02;32.59;30.07;35.01;;
66452;Laerm;56831;52.380;4.744;2023-02-13T00:12:13;32.61;30.63;34.69;;
66452;Laerm;56831;52.380;4.744;2023-02-13T00:12:27;39.01;32.56;44.80;;
66452;Laerm;56831;52.380;4.744;2023-02-13T00:12:38;41.30;37.01;44.75;;
66452;Laerm;56831;52.380;4.744;2023-02-13T00:12:49;44.31;35.65;52.68;;
66452;Laerm;56831;52.380;4.744;2023-02-13T00:12:59;40.40;33.44;47.26;;
66452;Laerm;56831;52.380;4.744;2023-02-13T00:13:11;37.91;32.72;42.05;;
66452;Laerm;56831;52.380;4.744;2023-02-13T00:13:22;39.93;35.09;43.94;;
66452;Laerm;56831;52.380;4.744;2023-02-13T00:13:33;37.38;33.22;41.45;;
66452;Laerm;56831;52.380;4.744;2023-02-13T00:13:44;34.83;31.80;38.17;;
66452;Laerm;56831;52.380;4.744;2023-02-13T00:13:55;34.44;32.24;38.76;;
66452;Laerm;56831;52.380;4.744;2023-02-13T00:14:07;33.79;31.16;36.85;;
66452;Laerm;56831;52.380;4.744;2023-02-13T00:14:20;32.79;31.17;35.11;;
66452;Laerm;56831;52.380;4.744;2023-02-13T00:14:35;33.03;31.12;34.62;;
66452;Laerm;56831;52.380;4.744;2023-02-13T00:14:45;35.83;31.01;44.29;;
66452;Laerm;56831;52.380;4.744;2023-02-13T00:14:56;37.81;31.93;42.49;;
66452;Laerm;56831;52.380;4.744;2023-02-13T00:15:10;36.92;31.46;41.72;;
66452;Laerm;56831;52.380;4.744;2023-02-13T00:15:20;35.91;31.37;39.27;;
66452;Laerm;56831;52.380;4.744;2023-02-13T00:15:37;33.02;30.65;34.98;;
66452;Laerm;56831;52.380;4.744;2023-02-13T00:15:55;32.94;31.42;34.53;;
66452;Laerm;56831;52.380;4.744;2023-02-13T00:16:09;32.81;30.66;34.80;;
66452;Laerm;56831;52.380;4.744;2023-02-13T00:16:22;32.06;30.44;33.69;;
66452;Laerm;56831;52.380;4.744;2023-02-13T00:16:33;31.99;30.75;33.19;;
66452;Laerm;56831;52.380;4.744;2023-02-13T00:16:45;32.21;30.72;42.50;;
66452;Laerm;56831;52.380;4.744;2023-02-13T00:17:02;31.99;30.71;33.81;;
66452;Laerm;56831;52.380;4.744;2023-02-13T00:17:12;32.29;30.31;34.14;;
66452;Laerm;56831;52.380;4.744;2023-02-13T00:17:26;31.55;29.90;32.76;;
66452;Laerm;56831;52.380;4.744;2023-02-13T00:17:39;32.34;30.68;34.08;;
66452;Laerm;56831;52.380;4.744;2023-02-13T00:17:51;31.63;30.06;33.24;;
66452;Laerm;56831;52.380;4.744;2023-02-13T00:18:02;31.84;30.20;33.54;;
66452;Laerm;56831;52.380;4.744;2023-02-13T00:18:14;31.87;30.53;33.15;;
66452;Laerm;56831;52.380;4.744;2023-02-13T00:18:27;32.66;30.93;41.10;;
66452;Laerm;56831;52.380;4.744;2023-02-13T00:18:43;32.92;31.06;34.52;;
66452;Laerm;56831;52.380;4.744;2023-02-13T00:18:55;32.15;30.10;34.28;;
66452;Laerm;56831;52.380;4.744;2023-02-13T00:19:06;32.40;30.63;33.87;;
66452;Laerm;56831;52.380;4.744;2023-02-13T00:19:18;32.30;30.77;34.10;;
66452;Laerm;56831;52.380;4.744;2023-02-13T00:19:29;32.51;31.10;35.17;;
66452;Laerm;56831;52.380;4.744;2023-02-13T00:19:43;31.84;30.07;34.41;;
66452;Laerm;56831;52.380;4.744;2023-02-13T00:19:53;31.47;30.15;32.80;;
66452;Laerm;56831;52.380;4.744;2023-02-13T00:20:04;31.24;29.51;32.52;;
66452;Laerm;56831;52.380;4.744;2023-02-13T00:20:15;31.96;30.24;34.24;;
66452;Laerm;56831;52.380;4.744;2023-02-13T00:20:27;31.77;30.23;33.44;;
66452;Laerm;56831;52.380;4.744;2023-02-13T00:20:37;32.04;30.74;36.92;;
66452;Laerm;56831;52.380;4.744;2023-02-13T00:20:58;31.78;30.45;33.09;;
66452;Laerm;56831;52.380;4.744;2023-02-13T00:21:11;40.38;30.57;49.55;;
66452;Laerm;56831;52.380;4.744;2023-02-13T00:21:23;42.27;40.23;44.80;;
66452;Laerm;56831;52.380;4.744;2023-02-13T00:21:33;38.52;35.54;44.66;;
66452;Laerm;56831;52.380;4.744;2023-02-13T00:21:45;35.66;32.62;39.01;;
66452;Laerm;56831;52.380;4.744;2023-02-13T00:21:57;32.80;31.27;34.81;;
66452;Laerm;56831;52.380;4.744;2023-02-13T00:22:09;32.13;30.66;33.52;;
66452;Laerm;56831;52.380;4.744;2023-02-13T00:22:25;32.44;30.84;33.78;;
66452;Laerm;56831;52.380;4.744;2023-02-13T00:22:44;32.85;31.25;35.18;;
66452;Laerm;56831;52.380;4.744;2023-02-13T00:22:56;32.84;31.27;34.64;;
66452;Laerm;56831;52.380;4.744;2023-02-13T00:23:11;32.98;31.05;35.22;;
66452;Laerm;56831;52.380;4.744;2023-02-13T00:23:23;33.12;31.64;34.95;;
66452;Laerm;56831;52.380;4.744;2023-02-13T00:23:40;32.86;31.00;35.15;;
66452;Laerm;56831;52.380;4.744;2023-02-13T00:23:51;32.06;30.26;33.92;;
66452;Laerm;56831;52.380;4.744;2023-02-13T00:24:02;32.31;30.56;33.90;;
66452;Laerm;56831;52.380;4.744;2023-02-13T00:24:14;32.11;30.59;33.58;;
66452;Laerm;56831;52.380;4.744;2023-02-13T00:24:32;32.16;30.61;33.70;;
66452;Laerm;56831;52.380;4.744;2023-02-13T00:24:49;32.21;30.38;34.32;;
66452;Laerm;56831;52.380;4.744;2023-02-13T00:24:59;32.88;31.34;34.63;;
66452;Laerm;56831;52.380;4.744;2023-02-13T00:25:14;32.30;30.66;34.29;;
66452;Laerm;56831;52.380;4.744;2023-02-13T00:25:32;31.46;29.78;33.37;;
66452;Laerm;56831;52.380;4.744;2023-02-13T00:25:48;32.32;31.06;33.74;;
66452;Laerm;56831;52.380;4.744;2023-02-13T00:26:11;32.96;31.09;35.25;;
66452;Laerm;56831;52.380;4.744;2023-02-13T00:26:22;32.49;30.63;40.36;;
66452;Laerm;56831;52.380;4.744;2023-02-13T00:26:33;32.71;31.27;34.25;;
66452;Laerm;56831;52.380;4.744;2023-02-13T00:26:44;32.28;30.87;33.69;;
66452;Laerm;56831;52.380;4.744;2023-02-13T00:27:00;32.40;30.96;33.68;;
66452;Laerm;56831;52.380;4.744;2023-02-13T00:27:16;32.46;30.79;34.89;;
66452;Laerm;56831;52.380;4.744;2023-02-13T00:27:34;32.46;31.22;34.45;;
66452;Laerm;56831;52.380;4.744;2023-02-13T00:27:49;33.11;31.52;35.75;;
66452;Laerm;56831;52.380;4.744;2023-02-13T00:28:00;32.80;31.05;34.30;;
66452;Laerm;56831;52.380;4.744;2023-02-13T00:28:13;32.47;30.75;35.42;;
66452;Laerm;56831;52.380;4.744;2023-02-13T00:28:24;32.53;31.04;34.43;;
66452;Laerm;56831;52.380;4.744;2023-02-13T00:28:38;32.65;30.88;38.70;;
66452;Laerm;56831;52.380;4.744;2023-02-13T00:28:49;32.05;30.76;33.67;;
66452;Laerm;56831;52.380;4.744;2023-02-13T00:29:01;31.41;29.89;32.68;;
66452;Laerm;56831;52.380;4.744;2023-02-13T00:29:12;31.51;30.21;33.15;;
66452;Laerm;56831;52.380;4.744;2023-02-13T00:29:25;32.19;30.34;39.22;;
66452;Laerm;56831;52.380;4.744;2023-02-13T00:29:37;32.22;30.71;33.75;;
66452;Laerm;56831;52.380;4.744;2023-02-13T00:29:50;31.85;30.54;33.41;;
66452;Laerm;56831;52.380;4.744;2023-02-13T00:30:04;31.53;30.03;32.85;;
66452;Laerm;56831;52.380;4.744;2023-02-13T00:30:15;31.59;29.74;32.95;;
66452;Laerm;56831;52.380;4.744;2023-02-13T00:30:26;31.97;30.02;35.89;;
66452;Laerm;56831;52.380;4.744;2023-02-13T00:30:39;31.74;30.31;33.22;;
66452;Laerm;56831;52.380;4.744;2023-02-13T00:30:51;31.92;30.33;33.70;;
66452;Laerm;56831;52.380;4.744;2023-02-13T00:31:16;31.47;30.09;33.22;;
66452;Laerm;56831;52.380;4.744;2023-02-13T00:31:27;31.75;30.00;32.65;;
66452;Laerm;56831;52.380;4.744;2023-02-13T00:31:37;31.95;30.70;33.39;;
66452;Laerm;56831;52.380;4.744;2023-02-13T00:31:48;31.99;30.82;33.52;;
66452;Laerm;56831;52.380;4.744;2023-02-13T00:31:59;32.11;30.55;33.94;;
66452;Laerm;56831;52.380;4.744;2023-02-13T00:32:10;32.38;30.69;33.76;;
66452;Laerm;56831;52.380;4.744;2023-02-13T00:32:21;32.06;30.37;33.21;;
66452;Laerm;56831;52.380;4.744;2023-02-13T00:32:31;31.96;30.51;34.09;;
66452;Laerm;56831;52.380;4.744;2023-02-13T00:32:43;31.96;30.23;33.82;;
66452;Laerm;56831;52.380;4.744;2023-02-13T00:32:54;32.47;29.74;37.87;;
66452;Laerm;56831;52.380;4.744;2023-02-13T00:33:06;32.22;30.19;35.57;;
66452;Laerm;56831;52.380;4.744;2023-02-13T00:33:17;31.55;30.23;33.06;;
66452;Laerm;56831;52.380;4.744;2023-02-13T00:33:27;30.99;29.37;32.31;;
66452;Laerm;56831;52.380;4.744;2023-02-13T00:33:39;31.01;29.60;32.44;;
66452;Laerm;56831;52.380;4.744;2023-02-13T00:33:50;31.18;29.77;33.52;;
66452;Laerm;56831;52.380;4.744;2023-02-13T00:34:00;31.14;29.69;32.43;;
66452;Laerm;56831;52.380;4.744;2023-02-13T00:34:11;31.92;30.08;33.19;;
66452;Laerm;56831;52.380;4.744;2023-02-13T00:34:21;32.17;30.69;33.48;;
66452;Laerm;56831;52.380;4.744;2023-02-13T00:34:33;31.16;30.08;32.20;;
66452;Laerm;56831;52.380;4.744;2023-02-13T00:34:44;31.41;29.96;32.89;;
66452;Laerm;56831;52.380;4.744;2023-02-13T00:34:54;31.33;30.00;33.32;;
66452;Laerm;56831;52.380;4.744;2023-02-13T00:35:05;32.15;30.48;34.69;;
66452;Laerm;56831;52.380;4.744;2023-02-13T00:35:16;32.23;30.62;33.94;;
66452;Laerm;56831;52.380;4.744;2023-02-13T00:35:27;31.99;30.56;33.53;;
66452;Laerm;56831;52.380;4.744;2023-02-13T00:35:40;31.63;30.09;32.83;;
66452;Laerm;56831;52.380;4.744;2023-02-13T00:36:00;31.38;29.89;32.79;;
66452;Laerm;56831;52.380;4.744;2023-02-13T00:36:12;32.01;30.30;35.93;;
66452;Laerm;56831;52.380;4.744;2023-02-13T00:36:26;32.38;30.58;34.19;;
66452;Laerm;56831;52.380;4.744;2023-02-13T00:36:42;31.86;30.25;33.38;;
66452;Laerm;56831;52.380;4.744;2023-02-13T00:36:52;32.35;30.60;33.96;;
66452;Laerm;56831;52.380;4.744;2023-02-13T00:37:07;32.35;30.58;34.11;;
66452;Laerm;56831;52.380;4.744;2023-02-13T00:37:18;32.79;30.42;36.05;;
66452;Laerm;56831;52.380;4.744;2023-02-13T00:37:28;32.33;30.40;34.88;;
66452;Laerm;56831;52.380;4.744;2023-02-13T00:37:42;32.25;30.84;33.74;;
66452;Laerm;56831;52.380;4.744;2023-02-13T00:37:52;32.32;30.45;34.73;;
66452;Laerm;56831;52.380;4.744;2023-02-13T00:38:03;32.88;31.21;34.54;;
66452;Laerm;56831;52.380;4.744;2023-02-13T00:38:13;32.33;30.79;35.47;;
66452;Laerm;56831;52.380;4.744;2023-02-13T00:38:24;31.62;30.03;33.13;;
66452;Laerm;56831;52.380;4.744;2023-02-13T00:38:35;31.59;29.97;33.09;;
66452;Laerm;56831;52.380;4.744;2023-02-13T00:38:47;31.83;30.39;33.19;;
66452;Laerm;56831;52.380;4.744;2023-02-13T00:39:00;32.26;30.86;34.31;;
66452;Laerm;56831;52.380;4.744;2023-02-13T00:39:12;32.72;31.08;34.82;;
66452;Laerm;56831;52.380;4.744;2023-02-13T00:39:23;32.71;30.99;34.87;;
66452;Laerm;56831;52.380;4.744;2023-02-13T00:39:33;32.17;30.92;33.68;;
66452;Laerm;56831;52.380;4.744;2023-02-13T00:39:45;32.28;30.43;34.32;;
66452;Laerm;56831;52.380;4.744;2023-02-13T00:39:55;31.89;30.24;33.74;;
66452;Laerm;56831;52.380;4.744;2023-02-13T00:40:07;31.66;30.21;32.97;;
66452;Laerm;56831;52.380;4.744;2023-02-13T00:40:17;31.47;29.82;32.79;;
66452;Laerm;56831;52.380;4.744;2023-02-13T00:40:28;31.32;30.08;32.63;;
66452;Laerm;56831;52.380;4.744;2023-02-13T00:40:40;31.18;29.76;32.58;;
66452;Laerm;56831;52.380;4.744;2023-02-13T00:40:52;31.52;29.92;32.88;;
66452;Laerm;56831;52.380;4.744;2023-02-13T00:41:02;31.49;29.57;33.55;;
66452;Laerm;56831;52.380;4.744;2023-02-13T00:41:13;31.83;30.36;33.47;;
66452;Laerm;56831;52.380;4.744;2023-02-13T00:41:44;31.37;29.89;33.59;;
66452;Laerm;56831;52.380;4.744;2023-02-13T00:41:55;31.60;30.20;33.10;;
66452;Laerm;56831;52.380;4.744;2023-02-13T00:42:06;31.67;30.16;33.26;;
66452;Laerm;56831;52.380;4.744;2023-02-13T00:42:17;31.49;30.04;33.12;;
66452;Laerm;56831;52.380;4.744;2023-02-13T00:42:34;31.67;30.14;37.59;;
66452;Laerm;56831;52.380;4.744;2023-02-13T00:42:45;31.93;30.29;34.55;;
66452;Laerm;56831;52.380;4.744;2023-02-13T00:42:57;32.02;30.16;33.96;;
66452;Laerm;56831;52.380;4.744;2023-02-13T00:43:08;31.64;30.07;33.10;;
66452;Laerm;56831;52.380;4.744;2023-02-13T00:43:25;32.41;30.55;34.89;;
66452;Laerm;56831;52.380;4.744;2023-02-13T00:43:35;32.08;30.60;34.33;;
66452;Laerm;56831;52.380;4.744;2023-02-13T00:43:47;32.38;31.07;33.88;;
66452;Laerm;56831;52.380;4.744;2023-02-13T00:43:57;31.76;30.07;33.32;;
66452;Laerm;56831;52.380;4.744;2023-02-13T00:44:08;31.23;30.08;32.49;;
66452;Laerm;56831;52.380;4.744;2023-02-13T00:44:20;31.48;29.98;33.21;;
66452;Laerm;56831;52.380;4.744;2023-02-13T00:44:30;31.53;29.99;34.61;;
66452;Laerm;56831;52.380;4.744;2023-02-13T00:44:41;31.47;29.26;33.39;;
66452;Laerm;56831;52.380;4.744;2023-02-13T00:44:52;31.49;30.09;33.70;;
66452;Laerm;56831;52.380;4.744;2023-02-13T00:45:02;31.25;29.80;32.43;;
66452;Laerm;56831;52.380;4.744;2023-02-13T00:45:13;31.45;29.88;33.02;;
66452;Laerm;56831;52.380;4.744;2023-02-13T00:45:24;31.20;29.76;33.09;;
66452;Laerm;56831;52.380;4.744;2023-02-13T00:45:34;31.49;30.15;33.92;;
66452;Laerm;56831;52.380;4.744;2023-02-13T00:45:45;31.70;29.84;32.95;;
66452;Laerm;56831;52.380;4.744;2023-02-13T00:45:55;32.85;31.36;34.60;;
66452;Laerm;56831;52.380;4.744;2023-02-13T00:46:07;32.16;30.96;33.80;;
66452;Laerm;56831;52.380;4.744;2023-02-13T00:46:18;31.64;30.13;33.01;;
66452;Laerm;56831;52.380;4.744;2023-02-13T00:46:29;31.72;30.09;33.17;;
66452;Laerm;56831;52.380;4.744;2023-02-13T00:46:39;32.25;30.54;33.97;;
66452;Laerm;56831;52.380;4.744;2023-02-13T00:46:49;31.58;30.21;32.95;;
66452;Laerm;56831;52.380;4.744;2023-02-13T00:47:00;31.58;29.65;33.05;;
66452;Laerm;56831;52.380;4.744;2023-02-13T00:47:11;31.73;30.38;32.80;;
66452;Laerm;56831;52.380;4.744;2023-02-13T00:47:23;31.78;30.27;33.29;;
66452;Laerm;56831;52.380;4.744;2023-02-13T00:47:34;31.73;30.28;33.10;;
66452;Laerm;56831;52.380;4.744;2023-02-13T00:47:44;32.17;30.58;33.43;;
66452;Laerm;56831;52.380;4.744;2023-02-13T00:47:55;32.55;30.49;33.87;;
66452;Laerm;56831;52.380;4.744;2023-02-13T00:48:05;32.66;31.13;33.96;;
66452;Laerm;56831;52.380;4.744;2023-02-13T00:48:20;32.13;30.39;33.71;;
66452;Laerm;56831;52.380;4.744;2023-02-13T00:48:31;31.84;30.16;33.01;;
66452;Laerm;56831;52.380;4.744;2023-02-13T00:48:42;32.17;30.87;33.83;;
66452;Laerm;56831;52.380;4.744;2023-02-13T00:48:59;32.61;30.51;34.13;;
66452;Laerm;56831;52.380;4.744;2023-02-13T00:49:10;32.10;30.38;34.60;;
66452;Laerm;56831;52.380;4.744;2023-02-13T00:49:20;32.17;30.69;33.96;;
66452;Laerm;56831;52.380;4.744;2023-02-13T00:49:31;32.56;30.92;34.61;;
66452;Laerm;56831;52.380;4.744;2023-02-13T00:49:41;32.60;30.82;34.18;;
66452;Laerm;56831;52.380;4.744;2023-02-13T00:49:52;32.43;30.25;34.49;;
66452;Laerm;56831;52.380;4.744;2023-02-13T00:50:05;32.06;30.65;33.68;;
66452;Laerm;56831;52.380;4.744;2023-02-13T00:50:18;32.97;31.12;34.70;;
66452;Laerm;56831;52.380;4.744;2023-02-13T00:50:29;32.22;30.31;33.63;;
66452;Laerm;56831;52.380;4.744;2023-02-13T00:50:46;32.76;30.95;35.87;;
66452;Laerm;56831;52.380;4.744;2023-02-13T00:50:57;32.47;30.91;34.19;;
66452;Laerm;56831;52.380;4.744;2023-02-13T00:51:08;33.00;31.30;34.26;;
66452;Laerm;56831;52.380;4.744;2023-02-13T00:51:20;32.83;31.27;34.39;;
66452;Laerm;56831;52.380;4.744;2023-02-13T00:51:30;32.86;30.80;34.13;;
66452;Laerm;56831;52.380;4.744;2023-02-13T00:51:42;32.16;30.57;33.72;;
66452;Laerm;56831;52.380;4.744;2023-02-13T00:51:53;32.09;30.32;34.50;;
66452;Laerm;56831;52.380;4.744;2023-02-13T00:52:03;31.80;30.54;33.34;;
66452;Laerm;56831;52.380;4.744;2023-02-13T00:52:18;32.38;30.81;34.13;;
66452;Laerm;56831;52.380;4.744;2023-02-13T00:52:29;32.78;31.26;34.54;;
66452;Laerm;56831;52.380;4.744;2023-02-13T00:52:40;32.01;30.02;33.91;;
66452;Laerm;56831;52.380;4.744;2023-02-13T00:52:51;32.01;30.63;33.72;;
66452;Laerm;56831;52.380;4.744;2023-02-13T00:53:02;32.12;30.43;34.12;;
66452;Laerm;56831;52.380;4.744;2023-02-13T00:53:16;32.11;30.47;34.28;;
66452;Laerm;56831;52.380;4.744;2023-02-13T00:53:26;32.24;30.75;33.68;;
66452;Laerm;56831;52.380;4.744;2023-02-13T00:53:38;32.40;30.70;34.74;;
66452;Laerm;56831;52.380;4.744;2023-02-13T00:53:50;32.38;30.86;34.04;;
66452;Laerm;56831;52.380;4.744;2023-02-13T00:54:03;32.34;30.71;34.00;;
66452;Laerm;56831;52.380;4.744;2023-02-13T00:54:17;32.49;30.74;33.86;;
66452;Laerm;56831;52.380;4.744;2023-02-13T00:54:28;32.02;30.48;33.56;;
66452;Laerm;56831;52.380;4.744;2023-02-13T00:54:44;32.02;30.54;33.77;;
66452;Laerm;56831;52.380;4.744;2023-02-13T00:54:56;31.94;30.26;35.06;;
66452;Laerm;56831;52.380;4.744;2023-02-13T00:55:07;32.45;30.85;34.12;;
66452;Laerm;56831;52.380;4.744;2023-02-13T00:55:18;32.46;30.73;34.25;;
66452;Laerm;56831;52.380;4.744;2023-02-13T00:55:29;33.30;31.61;34.82;;
66452;Laerm;56831;52.380;4.744;2023-02-13T00:55:39;32.94;31.23;34.86;;
66452;Laerm;56831;52.380;4.744;2023-02-13T00:55:50;32.45;30.80;34.05;;
66452;Laerm;56831;52.380;4.744;2023-02-13T00:56:01;31.95;30.54;34.12;;
66452;Laerm;56831;52.380;4.744;2023-02-13T00:56:12;32.40;30.47;35.01;;
66452;Laerm;56831;52.380;4.744;2023-02-13T00:56:28;32.29;30.52;34.32;;
66452;Laerm;56831;52.380;4.744;2023-02-13T00:56:39;31.80;30.29;33.34;;
66452;Laerm;56831;52.380;4.744;2023-02-13T00:56:49;32.11;30.65;33.66;;
66452;Laerm;56831;52.380;4.744;2023-02-13T00:57:00;31.78;30.37;33.16;;
66452;Laerm;56831;52.380;4.744;2023-02-13T00:57:17;31.50;29.91;33.82;;
66452;Laerm;56831;52.380;4.744;2023-02-13T00:57:27;31.65;30.13;33.07;;
66452;Laerm;56831;52.380;4.744;2023-02-13T00:57:40;31.30;29.95;32.74;;
66452;Laerm;56831;52.380;4.744;2023-02-13T00:57:50;31.39;30.15;32.94;;
66452;Laerm;56831;52.380;4.744;2023-02-13T00:58:01;31.44;29.93;33.65;;
66452;Laerm;56831;52.380;4.744;2023-02-13T00:58:12;31.61;30.16;33.46;;
66452;Laerm;56831;52.380;4.744;2023-02-13T00:58:24;31.70;30.32;33.26;;
66452;Laerm;56831;52.380;4.744;2023-02-13T00:58:35;31.89;30.20;34.04;;
66452;Laerm;56831;52.380;4.744;2023-02-13T00:58:46;31.85;30.46;33.32;;
66452;Laerm;56831;52.380;4.744;2023-02-13T00:59:00;31.77;30.32;33.95;;
66452;Laerm;56831;52.380;4.744;2023-02-13T00:59:16;32.00;30.32;33.66;;
66452;Laerm;56831;52.380;4.744;2023-02-13T00:59:28;32.18;30.79;33.99;;
66452;Laerm;56831;52.380;4.744;2023-02-13T01:00:21;32.56;30.37;36.58;;
66452;Laerm;56831;52.380;4.744;2023-02-13T01:00:32;32.31;30.61;33.98;;
66452;Laerm;56831;52.380;4.744;2023-02-13T01:00:42;32.53;31.04;34.24;;
66452;Laerm;56831;52.380;4.744;2023-02-13T01:00:53;32.32;30.39;35.26;;
66452;Laerm;56831;52.380;4.744;2023-02-13T01:01:04;32.85;31.00;35.54;;
66452;Laerm;56831;52.380;4.744;2023-02-13T01:01:18;33.06;31.50;34.97;;
66452;Laerm;56831;52.380;4.744;2023-02-13T01:01:28;33.59;31.85;35.34;;
66452;Laerm;56831;52.380;4.744;2023-02-13T01:01:39;34.55;32.08;36.37;;
66452;Laerm;56831;52.380;4.744;2023-02-13T01:01:49;32.76;31.18;34.64;;
66452;Laerm;56831;52.380;4.744;2023-02-13T01:02:00;33.02;31.05;36.34;;
66452;Laerm;56831;52.380;4.744;2023-02-13T01:02:12;32.31;30.67;33.57;;
66452;Laerm;56831;52.380;4.744;2023-02-13T01:02:24;32.19;29.82;33.56;;
66452;Laerm;56831;52.380;4.744;2023-02-13T01:02:35;33.13;30.45;37.53;;
66452;Laerm;56831;52.380;4.744;2023-02-13T01:02:45;33.38;30.53;36.31;;
66452;Laerm;56831;52.380;4.744;2023-02-13T01:02:59;33.90;30.98;39.54;;
66452;Laerm;56831;52.380;4.744;2023-02-13T01:03:10;32.17;30.50;34.57;;
66452;Laerm;56831;52.380;4.744;2023-02-13T01:03:26;31.88;30.09;33.92;;
66452;Laerm;56831;52.380;4.744;2023-02-13T01:03:37;32.13;30.57;33.73;;
66452;Laerm;56831;52.380;4.744;2023-02-13T01:03:49;32.22;30.59;35.46;;
66452;Laerm;56831;52.380;4.744;2023-02-13T01:04:01;31.77;30.19;33.41;;
66452;Laerm;56831;52.380;4.744;2023-02-13T01:04:12;31.46;30.23;32.76;;
66452;Laerm;56831;52.380;4.744;2023-02-13T01:04:22;31.60;30.01;40.78;;
66452;Laerm;56831;52.380;4.744;2023-02-13T01:04:33;31.48;29.97;32.58;;
66452;Laerm;56831;52.380;4.744;2023-02-13T01:04:44;31.79;30.57;33.87;;
66452;Laerm;56831;52.380;4.744;2023-02-13T01:04:54;32.19;30.57;33.51;;
66452;Laerm;56831;52.380;4.744;2023-02-13T01:05:08;31.66;29.78;32.95;;
66452;Laerm;56831;52.380;4.744;2023-02-13T01:05:18;31.57;30.18;33.36;;
66452;Laerm;56831;52.380;4.744;2023-02-13T01:05:29;31.57;29.94;33.20;;
66452;Laerm;56831;52.380;4.744;2023-02-13T01:05:40;31.90;30.60;33.49;;
66452;Laerm;56831;52.380;4.744;2023-02-13T01:05:51;31.94;29.92;34.04;;
66452;Laerm;56831;52.380;4.744;2023-02-13T01:06:01;32.38;30.83;33.91;;
66452;Laerm;56831;52.380;4.744;2023-02-13T01:06:18;31.89;30.12;33.98;;
66452;Laerm;56831;52.380;4.744;2023-02-13T01:06:35;31.80;29.85;34.19;;
66452;Laerm;56831;52.380;4.744;2023-02-13T01:06:46;31.78;30.21;33.54;;
66452;Laerm;56831;52.380;4.744;2023-02-13T01:07:00;31.77;30.35;33.39;;
66452;Laerm;56831;52.380;4.744;2023-02-13T01:07:11;31.74;30.12;33.27;;
66452;Laerm;56831;52.380;4.744;2023-02-13T01:07:22;32.27;30.63;33.87;;
66452;Laerm;56831;52.380;4.744;2023-02-13T01:07:35;31.85;30.50;33.31;;
66452;Laerm;56831;52.380;4.744;2023-02-13T01:07:45;32.20;30.63;33.82;;
66452;Laerm;56831;52.380;4.744;2023-02-13T01:07:59;32.11;30.43;34.13;;
66452;Laerm;56831;52.380;4.744;2023-02-13T01:08:11;31.99;30.44;34.09;;
66452;Laerm;56831;52.380;4.744;2023-02-13T01:08:22;32.38;30.17;33.79;;
66452;Laerm;56831;52.380;4.744;2023-02-13T01:08:37;32.20;30.65;33.73;;
66452;Laerm;56831;52.380;4.744;2023-02-13T01:08:49;32.33;30.71;34.22;;